sensor_id;sensor_type;location;lat;lon;timestamp;P1;durP1;ratioP1;P2;durP2;ratioP2
77880;SDS011;67077;50.298;18.996;2024-02-04T00:00:56;12.30;;;6.60;;
77880;SDS011;67077;50.298;18.996;2024-02-04T00:03:58;11.40;;;6.90;;
77880;SDS011;67077;50.298;18.996;2024-02-04T00:06:26;10.50;;;6.60;;
77880;SDS011;67077;50.298;18.996;2024-02-04T00:08:53;10.90;;;6.40;;
77880;SDS011;67077;50.298;18.996;2024-02-04T00:11:21;8.50;;;6.00;;
77880;SDS011;67077;50.298;18.996;2024-02-04T00:13:49;10.00;;;6.50;;
77880;SDS011;67077;50.298;18.996;2024-02-04T00:16:17;11.30;;;6.30;;
77880;SDS011;67077;50.298;18.996;2024-02-04T00:18:45;10.40;;;6.40;;
77880;SDS011;67077;50.298;18.996;2024-02-04T00:21:12;10.30;;;6.80;;
77880;SDS011;67077;50.298;18.996;2024-02-04T00:23:40;13.00;;;7.50;;
77880;SDS011;67077;50.298;18.996;2024-02-04T00:26:08;12.90;;;7.50;;
77880;SDS011;67077;50.298;18.996;2024-02-04T00:28:36;14.40;;;8.40;;
77880;SDS011;67077;50.298;18.996;2024-02-04T00:31:03;14.10;;;8.20;;
77880;SDS011;67077;50.298;18.996;2024-02-04T00:33:31;14.30;;;9.30;;
77880;SDS011;67077;50.298;18.996;2024-02-04T00:35:59;15.90;;;9.50;;
77880;SDS011;67077;50.298;18.996;2024-02-04T00:38:27;17.00;;;9.30;;
77880;SDS011;67077;50.298;18.996;2024-02-04T00:40:54;14.20;;;8.80;;
77880;SDS011;67077;50.298;18.996;2024-02-04T00:43:24;15.10;;;8.50;;
77880;SDS011;67077;50.298;18.996;2024-02-04T00:45:52;16.80;;;9.00;;
77880;SDS011;67077;50.298;18.996;2024-02-04T00:48:22;14.90;;;7.80;;
77880;SDS011;67077;50.298;18.996;2024-02-04T00:50:50;14.60;;;8.40;;
77880;SDS011;67077;50.298;18.996;2024-02-04T00:53:17;13.50;;;8.40;;
77880;SDS011;67077;50.298;18.996;2024-02-04T00:55:45;14.40;;;8.10;;
77880;SDS011;67077;50.298;18.996;2024-02-04T00:58:13;13.40;;;8.20;;
77880;SDS011;67077;50.298;18.996;2024-02-04T01:00:41;13.80;;;8.40;;
77880;SDS011;67077;50.298;18.996;2024-02-04T01:03:09;14.80;;;8.70;;
77880;SDS011;67077;50.298;18.996;2024-02-04T01:05:37;16.20;;;9.10;;
77880;SDS011;67077;50.298;18.996;2024-02-04T01:08:05;14.20;;;9.30;;
77880;SDS011;67077;50.298;18.996;2024-02-04T01:10:33;16.20;;;9.00;;
77880;SDS011;67077;50.298;18.996;2024-02-04T01:13:01;16.20;;;9.50;;
77880;SDS011;67077;50.298;18.996;2024-02-04T01:15:29;17.80;;;8.40;;
77880;SDS011;67077;50.298;18.996;2024-02-04T01:17:56;15.50;;;8.30;;
77880;SDS011;67077;50.298;18.996;2024-02-04T01:20:24;15.50;;;9.30;;
77880;SDS011;67077;50.298;18.996;2024-02-04T01:22:52;15.50;;;9.00;;
77880;SDS011;67077;50.298;18.996;2024-02-04T01:25:20;17.10;;;9.00;;
77880;SDS011;67077;50.298;18.996;2024-02-04T01:27:48;17.80;;;9.60;;
77880;SDS011;67077;50.298;18.996;2024-02-04T01:30:15;14.20;;;8.60;;
77880;SDS011;67077;50.298;18.996;2024-02-04T01:32:43;14.70;;;8.50;;
77880;SDS011;67077;50.298;18.996;2024-02-04T01:35:11;11.10;;;7.70;;
77880;SDS011;67077;50.298;18.996;2024-02-04T01:37:39;13.80;;;7.70;;
77880;SDS011;67077;50.298;18.996;2024-02-04T01:40:07;14.00;;;8.10;;
77880;SDS011;67077;50.298;18.996;2024-02-04T01:42:35;15.40;;;8.80;;
77880;SDS011;67077;50.298;18.996;2024-02-04T01:45:03;12.40;;;7.40;;
77880;SDS011;67077;50.298;18.996;2024-02-04T01:47:31;15.00;;;7.80;;
77880;SDS011;67077;50.298;18.996;2024-02-04T01:49:59;12.40;;;6.70;;
77880;SDS011;67077;50.298;18.996;2024-02-04T01:52:29;11.20;;;6.20;;
77880;SDS011;67077;50.298;18.996;2024-02-04T01:55:00;9.80;;;6.00;;
77880;SDS011;67077;50.298;18.996;2024-02-04T01:57:31;9.70;;;5.60;;
77880;SDS011;67077;50.298;18.996;2024-02-04T01:59:59;9.90;;;5.70;;
77880;SDS011;67077;50.298;18.996;2024-02-04T02:02:27;10.30;;;5.90;;
77880;SDS011;67077;50.298;18.996;2024-02-04T02:04:55;9.50;;;5.80;;
77880;SDS011;67077;50.298;18.996;2024-02-04T02:07:24;8.40;;;5.80;;
77880;SDS011;67077;50.298;18.996;2024-02-04T02:09:54;13.60;;;8.20;;
77880;SDS011;67077;50.298;18.996;2024-02-04T02:12:24;12.50;;;7.50;;
77880;SDS011;67077;50.298;18.996;2024-02-04T02:15:01;7.20;;;5.10;;
77880;SDS011;67077;50.298;18.996;2024-02-04T02:17:48;14.00;;;8.40;;
77880;SDS011;67077;50.298;18.996;2024-02-04T02:23:21;17.20;;;10.60;;
77880;SDS011;67077;50.298;18.996;2024-02-04T02:25:50;15.40;;;8.40;;
77880;SDS011;67077;50.298;18.996;2024-02-04T02:28:19;13.00;;;6.80;;
77880;SDS011;67077;50.298;18.996;2024-02-04T02:30:46;10.20;;;4.80;;
77880;SDS011;67077;50.298;18.996;2024-02-04T02:33:14;10.50;;;4.20;;
77880;SDS011;67077;50.298;18.996;2024-02-04T02:35:43;7.30;;;3.30;;
77880;SDS011;67077;50.298;18.996;2024-02-04T02:38:21;10.10;;;3.70;;
77880;SDS011;67077;50.298;18.996;2024-02-04T02:40:59;8.80;;;3.20;;
77880;SDS011;67077;50.298;18.996;2024-02-04T02:43:30;11.50;;;7.20;;
77880;SDS011;67077;50.298;18.996;2024-02-04T02:46:01;16.00;;;9.40;;
77880;SDS011;67077;50.298;18.996;2024-02-04T02:48:30;16.20;;;8.40;;
77880;SDS011;67077;50.298;18.996;2024-02-04T02:50:58;12.00;;;5.70;;
77880;SDS011;67077;50.298;18.996;2024-02-04T02:53:26;9.60;;;4.70;;
77880;SDS011;67077;50.298;18.996;2024-02-04T02:55:53;6.50;;;2.70;;
77880;SDS011;67077;50.298;18.996;2024-02-04T02:58:21;4.40;;;2.00;;
77880;SDS011;67077;50.298;18.996;2024-02-04T03:00:49;3.70;;;1.80;;
77880;SDS011;67077;50.298;18.996;2024-02-04T03:03:16;5.10;;;2.50;;
77880;SDS011;67077;50.298;18.996;2024-02-04T03:05:44;8.20;;;3.40;;
77880;SDS011;67077;50.298;18.996;2024-02-04T03:08:12;9.00;;;3.40;;
77880;SDS011;67077;50.298;18.996;2024-02-04T03:10:40;7.00;;;3.20;;
77880;SDS011;67077;50.298;18.996;2024-02-04T03:13:08;5.50;;;2.90;;
77880;SDS011;67077;50.298;18.996;2024-02-04T03:15:35;5.50;;;2.50;;
77880;SDS011;67077;50.298;18.996;2024-02-04T03:18:03;5.90;;;2.40;;
77880;SDS011;67077;50.298;18.996;2024-02-04T03:20:31;3.30;;;2.20;;
77880;SDS011;67077;50.298;18.996;2024-02-04T03:22:59;3.80;;;2.10;;
77880;SDS011;67077;50.298;18.996;2024-02-04T03:25:27;2.90;;;1.80;;
77880;SDS011;67077;50.298;18.996;2024-02-04T03:27:56;4.80;;;2.30;;
77880;SDS011;67077;50.298;18.996;2024-02-04T03:30:24;5.30;;;2.20;;
77880;SDS011;67077;50.298;18.996;2024-02-04T03:32:52;5.90;;;2.10;;
77880;SDS011;67077;50.298;18.996;2024-02-04T03:35:20;3.30;;;2.00;;
77880;SDS011;67077;50.298;18.996;2024-02-04T03:37:47;4.50;;;2.30;;
77880;SDS011;67077;50.298;18.996;2024-02-04T03:40:15;7.70;;;2.70;;
77880;SDS011;67077;50.298;18.996;2024-02-04T03:42:43;4.40;;;2.20;;
77880;SDS011;67077;50.298;18.996;2024-02-04T03:45:11;3.80;;;1.90;;
77880;SDS011;67077;50.298;18.996;2024-02-04T03:47:38;3.30;;;1.90;;
77880;SDS011;67077;50.298;18.996;2024-02-04T03:50:06;3.10;;;1.90;;
77880;SDS011;67077;50.298;18.996;2024-02-04T03:52:34;2.90;;;1.60;;
77880;SDS011;67077;50.298;18.996;2024-02-04T03:55:02;2.90;;;2.20;;
77880;SDS011;67077;50.298;18.996;2024-02-04T03:57:30;4.20;;;2.20;;
77880;SDS011;67077;50.298;18.996;2024-02-04T04:00:00;4.30;;;2.50;;
77880;SDS011;67077;50.298;18.996;2024-02-04T04:02:28;4.20;;;2.60;;
77880;SDS011;67077;50.298;18.996;2024-02-04T04:04:56;6.70;;;3.10;;
77880;SDS011;67077;50.298;18.996;2024-02-04T04:07:23;7.30;;;3.40;;
77880;SDS011;67077;50.298;18.996;2024-02-04T04:09:51;7.00;;;3.10;;
77880;SDS011;67077;50.298;18.996;2024-02-04T04:12:19;7.60;;;3.80;;
77880;SDS011;67077;50.298;18.996;2024-02-04T04:14:47;4.60;;;2.70;;
77880;SDS011;67077;50.298;18.996;2024-02-04T04:17:14;6.20;;;2.80;;
77880;SDS011;67077;50.298;18.996;2024-02-04T04:19:43;6.30;;;3.20;;
77880;SDS011;67077;50.298;18.996;2024-02-04T04:22:10;6.90;;;2.90;;
77880;SDS011;67077;50.298;18.996;2024-02-04T04:24:38;6.00;;;3.20;;
77880;SDS011;67077;50.298;18.996;2024-02-04T04:27:06;5.20;;;3.30;;
77880;SDS011;67077;50.298;18.996;2024-02-04T04:29:34;5.50;;;3.20;;
77880;SDS011;67077;50.298;18.996;2024-02-04T04:32:01;6.10;;;3.60;;
77880;SDS011;67077;50.298;18.996;2024-02-04T04:34:29;9.70;;;4.90;;
77880;SDS011;67077;50.298;18.996;2024-02-04T04:36:57;10.50;;;4.70;;
77880;SDS011;67077;50.298;18.996;2024-02-04T04:39:25;9.60;;;4.40;;
77880;SDS011;67077;50.298;18.996;2024-02-04T04:41:52;5.90;;;4.70;;
77880;SDS011;67077;50.298;18.996;2024-02-04T04:44:20;6.00;;;5.40;;
77880;SDS011;67077;50.298;18.996;2024-02-04T04:46:48;10.20;;;6.40;;
77880;SDS011;67077;50.298;18.996;2024-02-04T04:49:16;9.80;;;6.90;;
77880;SDS011;67077;50.298;18.996;2024-02-04T04:51:44;8.60;;;5.90;;
77880;SDS011;67077;50.298;18.996;2024-02-04T04:54:13;9.60;;;6.20;;
77880;SDS011;67077;50.298;18.996;2024-02-04T04:56:41;8.10;;;5.70;;
77880;SDS011;67077;50.298;18.996;2024-02-04T04:59:10;7.00;;;4.80;;
77880;SDS011;67077;50.298;18.996;2024-02-04T05:01:44;12.90;;;7.40;;
77880;SDS011;67077;50.298;18.996;2024-02-04T05:04:14;16.10;;;8.10;;
77880;SDS011;67077;50.298;18.996;2024-02-04T05:06:43;17.10;;;7.80;;
77880;SDS011;67077;50.298;18.996;2024-02-04T05:09:11;17.80;;;9.40;;
77880;SDS011;67077;50.298;18.996;2024-02-04T05:11:38;18.30;;;9.00;;
77880;SDS011;67077;50.298;18.996;2024-02-04T05:14:06;19.60;;;10.50;;
77880;SDS011;67077;50.298;18.996;2024-02-04T05:16:35;14.90;;;7.60;;
77880;SDS011;67077;50.298;18.996;2024-02-04T05:19:03;10.50;;;5.00;;
77880;SDS011;67077;50.298;18.996;2024-02-04T05:21:31;11.60;;;4.80;;
77880;SDS011;67077;50.298;18.996;2024-02-04T05:23:59;7.30;;;4.50;;
77880;SDS011;67077;50.298;18.996;2024-02-04T05:26:26;7.20;;;4.40;;
77880;SDS011;67077;50.298;18.996;2024-02-04T05:28:54;8.10;;;4.80;;
77880;SDS011;67077;50.298;18.996;2024-02-04T05:31:22;6.80;;;3.70;;
77880;SDS011;67077;50.298;18.996;2024-02-04T05:33:51;7.10;;;4.00;;
77880;SDS011;67077;50.298;18.996;2024-02-04T05:36:19;6.20;;;4.20;;
77880;SDS011;67077;50.298;18.996;2024-02-04T05:38:47;6.80;;;3.40;;
77880;SDS011;67077;50.298;18.996;2024-02-04T05:41:15;4.50;;;3.20;;
77880;SDS011;67077;50.298;18.996;2024-02-04T05:43:42;4.70;;;2.90;;
77880;SDS011;67077;50.298;18.996;2024-02-04T05:46:10;3.90;;;2.60;;
77880;SDS011;67077;50.298;18.996;2024-02-04T05:48:42;3.30;;;2.40;;
77880;SDS011;67077;50.298;18.996;2024-02-04T05:51:12;3.50;;;2.50;;
77880;SDS011;67077;50.298;18.996;2024-02-04T05:53:40;4.00;;;2.10;;
77880;SDS011;67077;50.298;18.996;2024-02-04T05:56:08;4.80;;;2.60;;
77880;SDS011;67077;50.298;18.996;2024-02-04T05:58:35;3.70;;;2.40;;
77880;SDS011;67077;50.298;18.996;2024-02-04T06:01:03;4.60;;;2.30;;
77880;SDS011;67077;50.298;18.996;2024-02-04T06:03:31;3.40;;;2.50;;
77880;SDS011;67077;50.298;18.996;2024-02-04T06:05:59;5.90;;;2.50;;
77880;SDS011;67077;50.298;18.996;2024-02-04T06:08:27;5.40;;;2.60;;
77880;SDS011;67077;50.298;18.996;2024-02-04T06:10:54;6.00;;;2.30;;
77880;SDS011;67077;50.298;18.996;2024-02-04T06:13:22;3.60;;;2.00;;
77880;SDS011;67077;50.298;18.996;2024-02-04T06:15:50;6.00;;;2.50;;
77880;SDS011;67077;50.298;18.996;2024-02-04T06:18:18;5.70;;;2.50;;
77880;SDS011;67077;50.298;18.996;2024-02-04T06:20:46;6.40;;;2.30;;
77880;SDS011;67077;50.298;18.996;2024-02-04T06:23:13;8.30;;;3.70;;
77880;SDS011;67077;50.298;18.996;2024-02-04T06:25:41;8.30;;;4.10;;
77880;SDS011;67077;50.298;18.996;2024-02-04T06:28:09;10.40;;;3.60;;
77880;SDS011;67077;50.298;18.996;2024-02-04T06:30:38;9.60;;;3.40;;
77880;SDS011;67077;50.298;18.996;2024-02-04T06:33:05;9.60;;;2.90;;
77880;SDS011;67077;50.298;18.996;2024-02-04T06:35:33;7.60;;;3.00;;
77880;SDS011;67077;50.298;18.996;2024-02-04T06:38:01;6.90;;;2.80;;
77880;SDS011;67077;50.298;18.996;2024-02-04T06:40:29;9.30;;;3.20;;
77880;SDS011;67077;50.298;18.996;2024-02-04T06:42:56;11.40;;;4.40;;
77880;SDS011;67077;50.298;18.996;2024-02-04T06:45:24;10.50;;;3.30;;
77880;SDS011;67077;50.298;18.996;2024-02-04T06:47:52;8.10;;;3.40;;
77880;SDS011;67077;50.298;18.996;2024-02-04T06:50:20;6.80;;;3.30;;
77880;SDS011;67077;50.298;18.996;2024-02-04T06:52:48;8.50;;;4.10;;
77880;SDS011;67077;50.298;18.996;2024-02-04T06:55:15;8.00;;;3.30;;
77880;SDS011;67077;50.298;18.996;2024-02-04T06:57:43;10.70;;;3.50;;
77880;SDS011;67077;50.298;18.996;2024-02-04T07:00:11;8.40;;;2.60;;
77880;SDS011;67077;50.298;18.996;2024-02-04T07:02:39;6.40;;;2.70;;
77880;SDS011;67077;50.298;18.996;2024-02-04T07:05:07;6.70;;;2.60;;
77880;SDS011;67077;50.298;18.996;2024-02-04T07:07:35;6.90;;;2.70;;
77880;SDS011;67077;50.298;18.996;2024-02-04T07:10:04;7.40;;;2.40;;
77880;SDS011;67077;50.298;18.996;2024-02-04T07:12:32;8.20;;;2.50;;
77880;SDS011;67077;50.298;18.996;2024-02-04T07:15:00;9.00;;;2.90;;
77880;SDS011;67077;50.298;18.996;2024-02-04T07:17:28;7.30;;;3.00;;
77880;SDS011;67077;50.298;18.996;2024-02-04T07:19:56;8.80;;;2.90;;
77880;SDS011;67077;50.298;18.996;2024-02-04T07:22:24;9.10;;;3.50;;
77880;SDS011;67077;50.298;18.996;2024-02-04T07:24:52;8.90;;;3.00;;
77880;SDS011;67077;50.298;18.996;2024-02-04T07:27:20;6.70;;;2.90;;
77880;SDS011;67077;50.298;18.996;2024-02-04T07:29:48;7.60;;;4.20;;
77880;SDS011;67077;50.298;18.996;2024-02-04T07:32:16;14.00;;;5.90;;
77880;SDS011;67077;50.298;18.996;2024-02-04T07:34:43;15.90;;;6.30;;
77880;SDS011;67077;50.298;18.996;2024-02-04T07:37:11;10.90;;;5.10;;
77880;SDS011;67077;50.298;18.996;2024-02-04T07:39:39;9.60;;;4.00;;
77880;SDS011;67077;50.298;18.996;2024-02-04T07:42:07;7.80;;;4.00;;
77880;SDS011;67077;50.298;18.996;2024-02-04T07:44:34;13.70;;;4.60;;
77880;SDS011;67077;50.298;18.996;2024-02-04T07:47:02;9.00;;;4.30;;
77880;SDS011;67077;50.298;18.996;2024-02-04T07:49:30;14.80;;;5.30;;
77880;SDS011;67077;50.298;18.996;2024-02-04T07:51:58;13.50;;;6.00;;
77880;SDS011;67077;50.298;18.996;2024-02-04T07:54:26;18.70;;;6.70;;
77880;SDS011;67077;50.298;18.996;2024-02-04T07:56:53;15.70;;;6.30;;
77880;SDS011;67077;50.298;18.996;2024-02-04T07:59:21;14.90;;;5.80;;
77880;SDS011;67077;50.298;18.996;2024-02-04T08:01:49;17.00;;;5.80;;
77880;SDS011;67077;50.298;18.996;2024-02-04T08:04:17;16.10;;;7.60;;
77880;SDS011;67077;50.298;18.996;2024-02-04T08:06:44;19.20;;;6.30;;
77880;SDS011;67077;50.298;18.996;2024-02-04T08:09:12;14.30;;;5.50;;
77880;SDS011;67077;50.298;18.996;2024-02-04T08:11:41;16.10;;;5.20;;
77880;SDS011;67077;50.298;18.996;2024-02-04T08:14:08;11.60;;;5.20;;
77880;SDS011;67077;50.298;18.996;2024-02-04T08:16:36;13.10;;;5.30;;
77880;SDS011;67077;50.298;18.996;2024-02-04T08:19:04;16.30;;;5.80;;
77880;SDS011;67077;50.298;18.996;2024-02-04T08:21:34;14.70;;;5.40;;
77880;SDS011;67077;50.298;18.996;2024-02-04T08:24:02;15.80;;;5.10;;
77880;SDS011;67077;50.298;18.996;2024-02-04T08:26:30;14.40;;;5.80;;
77880;SDS011;67077;50.298;18.996;2024-02-04T08:28:59;13.70;;;5.20;;
77880;SDS011;67077;50.298;18.996;2024-02-04T08:31:27;12.30;;;4.30;;
77880;SDS011;67077;50.298;18.996;2024-02-04T08:33:54;13.20;;;4.80;;
77880;SDS011;67077;50.298;18.996;2024-02-04T08:36:22;14.20;;;5.40;;
77880;SDS011;67077;50.298;18.996;2024-02-04T08:38:50;14.00;;;6.00;;
77880;SDS011;67077;50.298;18.996;2024-02-04T08:41:19;19.50;;;7.80;;
77880;SDS011;67077;50.298;18.996;2024-02-04T08:43:47;17.20;;;6.30;;
77880;SDS011;67077;50.298;18.996;2024-02-04T08:46:14;14.10;;;5.60;;
77880;SDS011;67077;50.298;18.996;2024-02-04T08:48:42;17.00;;;5.80;;
77880;SDS011;67077;50.298;18.996;2024-02-04T08:51:11;15.50;;;5.10;;
77880;SDS011;67077;50.298;18.996;2024-02-04T08:53:40;13.20;;;5.20;;
77880;SDS011;67077;50.298;18.996;2024-02-04T08:56:08;14.40;;;5.80;;
77880;SDS011;67077;50.298;18.996;2024-02-04T08:58:36;15.30;;;6.10;;
77880;SDS011;67077;50.298;18.996;2024-02-04T09:01:05;14.10;;;5.80;;
77880;SDS011;67077;50.298;18.996;2024-02-04T09:03:33;18.20;;;6.50;;
77880;SDS011;67077;50.298;18.996;2024-02-04T09:06:01;15.30;;;6.70;;
77880;SDS011;67077;50.298;18.996;2024-02-04T09:08:29;16.80;;;6.30;;
77880;SDS011;67077;50.298;18.996;2024-02-04T09:10:56;18.20;;;6.20;;
77880;SDS011;67077;50.298;18.996;2024-02-04T09:13:24;15.50;;;5.90;;
77880;SDS011;67077;50.298;18.996;2024-02-04T09:15:52;13.00;;;5.60;;
77880;SDS011;67077;50.298;18.996;2024-02-04T09:18:21;16.20;;;6.60;;
77880;SDS011;67077;50.298;18.996;2024-02-04T09:20:49;15.10;;;5.20;;
77880;SDS011;67077;50.298;18.996;2024-02-04T09:23:17;14.30;;;5.10;;
77880;SDS011;67077;50.298;18.996;2024-02-04T09:25:45;15.30;;;5.70;;
77880;SDS011;67077;50.298;18.996;2024-02-04T09:28:12;14.60;;;6.00;;
77880;SDS011;67077;50.298;18.996;2024-02-04T09:30:40;12.80;;;5.70;;
77880;SDS011;67077;50.298;18.996;2024-02-04T09:33:08;12.90;;;5.50;;
77880;SDS011;67077;50.298;18.996;2024-02-04T09:35:36;10.50;;;5.20;;
77880;SDS011;67077;50.298;18.996;2024-02-04T09:38:04;14.20;;;5.70;;
77880;SDS011;67077;50.298;18.996;2024-02-04T09:40:32;12.90;;;4.50;;
77880;SDS011;67077;50.298;18.996;2024-02-04T09:43:01;13.30;;;4.90;;
77880;SDS011;67077;50.298;18.996;2024-02-04T09:45:29;9.60;;;4.10;;
77880;SDS011;67077;50.298;18.996;2024-02-04T09:47:58;10.30;;;4.50;;
77880;SDS011;67077;50.298;18.996;2024-02-04T09:50:28;11.40;;;4.60;;
77880;SDS011;67077;50.298;18.996;2024-02-04T09:52:58;10.20;;;3.90;;
77880;SDS011;67077;50.298;18.996;2024-02-04T09:55:29;11.10;;;4.40;;
77880;SDS011;67077;50.298;18.996;2024-02-04T09:57:59;10.80;;;4.30;;
77880;SDS011;67077;50.298;18.996;2024-02-04T10:00:29;10.40;;;4.10;;
77880;SDS011;67077;50.298;18.996;2024-02-04T10:03:00;14.10;;;4.50;;
77880;SDS011;67077;50.298;18.996;2024-02-04T10:05:31;7.00;;;3.70;;
77880;SDS011;67077;50.298;18.996;2024-02-04T10:07:59;9.60;;;3.30;;
77880;SDS011;67077;50.298;18.996;2024-02-04T10:10:27;11.40;;;4.60;;
77880;SDS011;67077;50.298;18.996;2024-02-04T10:12:55;10.40;;;4.40;;
77880;SDS011;67077;50.298;18.996;2024-02-04T10:15:22;13.50;;;4.80;;
77880;SDS011;67077;50.298;18.996;2024-02-04T10:17:50;9.80;;;4.00;;
77880;SDS011;67077;50.298;18.996;2024-02-04T10:20:18;10.60;;;4.40;;
77880;SDS011;67077;50.298;18.996;2024-02-04T10:22:45;10.50;;;4.60;;
77880;SDS011;67077;50.298;18.996;2024-02-04T10:25:13;11.00;;;4.60;;
77880;SDS011;67077;50.298;18.996;2024-02-04T10:27:43;11.90;;;4.30;;
77880;SDS011;67077;50.298;18.996;2024-02-04T10:30:13;11.20;;;3.90;;
77880;SDS011;67077;50.298;18.996;2024-02-04T10:32:42;11.30;;;4.20;;
77880;SDS011;67077;50.298;18.996;2024-02-04T10:35:10;11.80;;;4.10;;
77880;SDS011;67077;50.298;18.996;2024-02-04T10:37:38;11.60;;;4.80;;
77880;SDS011;67077;50.298;18.996;2024-02-04T10:40:06;11.00;;;4.40;;
77880;SDS011;67077;50.298;18.996;2024-02-04T10:42:36;10.40;;;4.20;;
77880;SDS011;67077;50.298;18.996;2024-02-04T10:45:07;12.00;;;4.50;;
77880;SDS011;67077;50.298;18.996;2024-02-04T10:47:37;12.70;;;4.60;;
77880;SDS011;67077;50.298;18.996;2024-02-04T10:50:06;10.80;;;4.30;;
77880;SDS011;67077;50.298;18.996;2024-02-04T10:52:36;11.20;;;4.50;;
77880;SDS011;67077;50.298;18.996;2024-02-04T10:55:10;9.80;;;4.10;;
77880;SDS011;67077;50.298;18.996;2024-02-04T10:57:38;9.40;;;4.40;;
77880;SDS011;67077;50.298;18.996;2024-02-04T11:00:07;13.40;;;5.00;;
77880;SDS011;67077;50.298;18.996;2024-02-04T11:02:39;11.90;;;4.80;;
77880;SDS011;67077;50.298;18.996;2024-02-04T11:05:10;12.70;;;4.80;;
77880;SDS011;67077;50.298;18.996;2024-02-04T11:07:38;9.30;;;3.70;;
77880;SDS011;67077;50.298;18.996;2024-02-04T11:10:06;11.60;;;3.90;;
77880;SDS011;67077;50.298;18.996;2024-02-04T11:12:35;10.70;;;3.90;;
77880;SDS011;67077;50.298;18.996;2024-02-04T11:15:08;11.40;;;3.80;;
77880;SDS011;67077;50.298;18.996;2024-02-04T11:25:54;12.40;;;5.00;;
77880;SDS011;67077;50.298;18.996;2024-02-04T11:28:25;11.80;;;4.80;;
77880;SDS011;67077;50.298;18.996;2024-02-04T11:30:54;10.90;;;4.90;;
77880;SDS011;67077;50.298;18.996;2024-02-04T11:33:23;10.90;;;5.00;;
77880;SDS011;67077;50.298;18.996;2024-02-04T11:36:02;13.00;;;5.60;;
77880;SDS011;67077;50.298;18.996;2024-02-04T11:38:37;12.80;;;5.70;;
77880;SDS011;67077;50.298;18.996;2024-02-04T11:41:06;13.80;;;6.40;;
77880;SDS011;67077;50.298;18.996;2024-02-04T11:43:35;11.90;;;6.80;;
77880;SDS011;67077;50.298;18.996;2024-02-04T11:46:15;13.00;;;6.60;;
77880;SDS011;67077;50.298;18.996;2024-02-04T11:48:51;15.50;;;7.90;;
77880;SDS011;67077;50.298;18.996;2024-02-04T11:51:24;16.10;;;7.50;;
77880;SDS011;67077;50.298;18.996;2024-02-04T11:53:52;17.40;;;7.90;;
77880;SDS011;67077;50.298;18.996;2024-02-04T11:56:20;15.20;;;7.80;;
77880;SDS011;67077;50.298;18.996;2024-02-04T11:58:49;17.20;;;9.00;;
77880;SDS011;67077;50.298;18.996;2024-02-04T12:01:17;16.00;;;8.30;;
77880;SDS011;67077;50.298;18.996;2024-02-04T12:03:44;14.90;;;8.80;;
77880;SDS011;67077;50.298;18.996;2024-02-04T12:06:12;15.30;;;9.60;;
77880;SDS011;67077;50.298;18.996;2024-02-04T12:08:42;17.60;;;10.10;;
77880;SDS011;67077;50.298;18.996;2024-02-04T12:11:11;20.80;;;11.50;;
77880;SDS011;67077;50.298;18.996;2024-02-04T12:13:39;21.00;;;11.10;;
77880;SDS011;67077;50.298;18.996;2024-02-04T12:16:07;19.80;;;11.10;;
77880;SDS011;67077;50.298;18.996;2024-02-04T12:18:36;18.60;;;9.90;;
77880;SDS011;67077;50.298;18.996;2024-02-04T12:21:03;21.20;;;11.30;;
77880;SDS011;67077;50.298;18.996;2024-02-04T12:23:31;20.20;;;11.60;;
77880;SDS011;67077;50.298;18.996;2024-02-04T12:25:59;26.40;;;13.40;;
77880;SDS011;67077;50.298;18.996;2024-02-04T12:28:27;27.30;;;15.20;;
77880;SDS011;67077;50.298;18.996;2024-02-04T12:30:55;32.10;;;18.80;;
77880;SDS011;67077;50.298;18.996;2024-02-04T12:33:23;32.60;;;19.80;;
77880;SDS011;67077;50.298;18.996;2024-02-04T12:35:51;37.60;;;20.40;;
77880;SDS011;67077;50.298;18.996;2024-02-04T12:38:20;33.80;;;18.20;;
77880;SDS011;67077;50.298;18.996;2024-02-04T12:40:47;45.10;;;22.40;;
77880;SDS011;67077;50.298;18.996;2024-02-04T12:43:15;45.20;;;22.40;;
77880;SDS011;67077;50.298;18.996;2024-02-04T12:45:43;43.40;;;21.90;;
77880;SDS011;67077;50.298;18.996;2024-02-04T12:48:13;42.50;;;21.60;;
77880;SDS011;67077;50.298;18.996;2024-02-04T12:50:44;33.60;;;18.50;;
77880;SDS011;67077;50.298;18.996;2024-02-04T12:53:12;33.50;;;19.00;;
77880;SDS011;67077;50.298;18.996;2024-02-04T12:55:40;31.30;;;17.40;;
77880;SDS011;67077;50.298;18.996;2024-02-04T12:58:11;34.50;;;18.70;;
77880;SDS011;67077;50.298;18.996;2024-02-04T13:00:41;29.70;;;17.70;;
77880;SDS011;67077;50.298;18.996;2024-02-04T13:03:09;38.60;;;22.90;;
77880;SDS011;67077;50.298;18.996;2024-02-04T13:05:38;35.00;;;22.10;;
77880;SDS011;67077;50.298;18.996;2024-02-04T13:08:06;39.70;;;22.60;;
77880;SDS011;67077;50.298;18.996;2024-02-04T13:10:35;40.90;;;24.30;;
77880;SDS011;67077;50.298;18.996;2024-02-04T13:15:39;48.80;;;27.10;;
77880;SDS011;67077;50.298;18.996;2024-02-04T13:18:08;48.30;;;26.90;;
77880;SDS011;67077;50.298;18.996;2024-02-04T13:20:39;44.40;;;24.80;;
77880;SDS011;67077;50.298;18.996;2024-02-04T13:23:08;36.80;;;20.80;;
77880;SDS011;67077;50.298;18.996;2024-02-04T13:25:36;35.00;;;19.90;;
77880;SDS011;67077;50.298;18.996;2024-02-04T13:28:04;32.10;;;18.80;;
77880;SDS011;67077;50.298;18.996;2024-02-04T13:30:31;36.70;;;21.70;;
77880;SDS011;67077;50.298;18.996;2024-02-04T13:32:59;36.80;;;21.00;;
77880;SDS011;67077;50.298;18.996;2024-02-04T13:35:29;37.00;;;20.80;;
77880;SDS011;67077;50.298;18.996;2024-02-04T13:37:57;45.70;;;22.50;;
77880;SDS011;67077;50.298;18.996;2024-02-04T13:40:25;45.70;;;24.00;;
77880;SDS011;67077;50.298;18.996;2024-02-04T13:42:53;42.90;;;22.20;;
77880;SDS011;67077;50.298;18.996;2024-02-04T13:45:21;30.70;;;18.00;;
77880;SDS011;67077;50.298;18.996;2024-02-04T13:47:50;28.50;;;17.00;;
77880;SDS011;67077;50.298;18.996;2024-02-04T13:50:18;33.90;;;17.50;;
77880;SDS011;67077;50.298;18.996;2024-02-04T13:52:46;25.40;;;14.20;;
77880;SDS011;67077;50.298;18.996;2024-02-04T13:55:13;24.30;;;13.50;;
77880;SDS011;67077;50.298;18.996;2024-02-04T13:57:41;20.40;;;12.20;;
77880;SDS011;67077;50.298;18.996;2024-02-04T14:00:09;21.10;;;13.10;;
77880;SDS011;67077;50.298;18.996;2024-02-04T14:02:38;25.60;;;14.00;;
77880;SDS011;67077;50.298;18.996;2024-02-04T14:05:06;23.70;;;14.40;;
77880;SDS011;67077;50.298;18.996;2024-02-04T14:07:34;19.80;;;12.60;;
77880;SDS011;67077;50.298;18.996;2024-02-04T14:10:02;21.70;;;12.30;;
77880;SDS011;67077;50.298;18.996;2024-02-04T14:12:30;19.90;;;11.10;;
77880;SDS011;67077;50.298;18.996;2024-02-04T14:14:59;21.30;;;11.60;;
77880;SDS011;67077;50.298;18.996;2024-02-04T14:17:26;20.50;;;11.90;;
77880;SDS011;67077;50.298;18.996;2024-02-04T14:19:54;19.60;;;11.70;;
77880;SDS011;67077;50.298;18.996;2024-02-04T14:22:23;21.50;;;12.90;;
77880;SDS011;67077;50.298;18.996;2024-02-04T14:24:51;20.50;;;11.00;;
77880;SDS011;67077;50.298;18.996;2024-02-04T14:27:19;24.50;;;13.10;;
77880;SDS011;67077;50.298;18.996;2024-02-04T14:29:47;20.10;;;11.70;;
77880;SDS011;67077;50.298;18.996;2024-02-04T14:32:15;22.70;;;12.70;;
77880;SDS011;67077;50.298;18.996;2024-02-04T14:34:42;22.20;;;12.60;;
77880;SDS011;67077;50.298;18.996;2024-02-04T14:37:10;20.10;;;10.80;;
77880;SDS011;67077;50.298;18.996;2024-02-04T14:39:39;17.90;;;10.20;;
77880;SDS011;67077;50.298;18.996;2024-02-04T14:42:08;19.50;;;10.90;;
77880;SDS011;67077;50.298;18.996;2024-02-04T14:44:37;17.30;;;9.70;;